Time;durP1;ratioP1;P1;durP2;ratioP2;P2;SDS_P1;SDS_P2;PMS_P1;PMS_P2;Temp;Humidity;BMP_temperature;BMP_pressure;BME280_temperature;BME280_humidity;BME280_pressure;Samples;Min_cycle;Max_cycle;Signal;HPM_P1;HPM_P2
2022/05/05 00:00:13;;;;;;;6.93;3.20;;;10.20;82.50;;;;;;5133256;27;20230;-59
2022/05/05 00:02:41;;;;;;;6.77;2.90;;;10.30;84.30;;;;;;5133018;27;20277;-59
2022/05/05 00:05:08;;;;;;;7.07;3.47;;;10.30;85.80;;;;;;5133251;27;20213;-59
2022/05/05 00:07:35;;;;;;;7.30;2.93;;;10.30;86.80;;;;;;5132565;27;20635;-59
2022/05/05 00:14:23;;;;;;;6.70;3.43;;;10.30;90.10;;;;;;5132963;27;20226;-56
2022/05/05 00:15:33;;;;;;;7.57;3.37;;;10.30;94.80;;;;;;5132895;27;20229;-58
2022/05/05 00:18:01;;;;;;;5.30;3.03;;;10.30;93.50;;;;;;5132553;27;20204;-58
2022/05/05 00:20:28;;;;;;;5.87;3.20;;;10.30;93.60;;;;;;5132828;27;20225;-59
2022/05/05 00:22:55;;;;;;;8.50;3.10;;;10.30;94.00;;;;;;5133249;27;20224;-58
2022/05/05 00:25:22;;;;;;;7.27;3.23;;;10.30;93.30;;;;;;5133481;27;20272;-59
2022/05/05 00:27:49;;;;;;;4.67;3.10;;;10.30;92.30;;;;;;5133198;27;20236;-59
2022/05/05 00:30:15;;;;;;;6.33;3.57;;;10.30;92.00;;;;;;5132869;27;20232;-58
2022/05/05 00:32:42;;;;;;;6.70;4.00;;;10.30;92.30;;;;;;5132951;27;20245;-59
2022/05/05 00:35:10;;;;;;;8.57;3.93;;;10.30;94.00;;;;;;5132648;27;20213;-59
2022/05/05 00:37:37;;;;;;;6.47;3.30;;;10.30;95.20;;;;;;5132634;27;20217;-59
2022/05/05 00:40:04;;;;;;;8.47;3.07;;;10.30;97.00;;;;;;5132509;27;20221;-58
2022/05/05 00:42:31;;;;;;;5.93;3.23;;;10.30;98.20;;;;;;5132557;27;20777;-57
2022/05/05 00:44:58;;;;;;;6.33;3.33;;;10.40;98.50;;;;;;5132779;27;20663;-59
2022/05/05 00:47:25;;;;;;;8.40;3.60;;;10.40;98.50;;;;;;5131970;27;20253;-59
2022/05/05 00:49:52;;;;;;;6.37;3.83;;;10.40;98.80;;;;;;5132478;27;20727;-59
2022/05/05 00:52:20;;;;;;;9.87;3.77;;;10.40;99.10;;;;;;5132618;27;20290;-59
2022/05/05 00:54:47;;;;;;;7.20;3.40;;;10.40;98.50;;;;;;5132600;27;20258;-59
2022/05/05 00:57:15;;;;;;;9.57;4.03;;;10.40;97.00;;;;;;5132145;27;20204;-59
2022/05/05 00:59:44;;;;;;;6.33;3.60;;;10.40;96.50;;;;;;5132585;27;20229;-58
2022/05/05 01:02:10;;;;;;;10.10;3.87;;;10.40;96.10;;;;;;5132994;27;20736;-59
2022/05/05 01:04:38;;;;;;;7.40;3.60;;;10.50;96.10;;;;;;5136000;27;20252;-57
2022/05/05 01:07:05;;;;;;;5.67;3.10;;;10.50;95.80;;;;;;5136231;27;20267;-59
2022/05/05 01:09:34;;;;;;;11.70;3.90;;;10.50;96.40;;;;;;5136131;27;20668;-58
2022/05/05 01:12:02;;;;;;;6.23;3.50;;;10.60;97.20;;;;;;5136013;27;20212;-58
2022/05/05 01:14:30;;;;;;;7.40;3.73;;;10.60;97.80;;;;;;5136052;27;20203;-58
2022/05/05 01:16:58;;;;;;;7.67;3.53;;;10.60;98.70;;;;;;5134746;27;20205;-59
2022/05/05 01:19:25;;;;;;;8.60;3.57;;;10.60;99.10;;;;;;5135282;27;20801;-56
2022/05/05 01:21:54;;;;;;;8.50;3.60;;;10.60;99.90;;;;;;5135637;27;20297;-58
2022/05/05 01:28:10;;;;;;;7.17;3.93;;;10.60;99.90;;;;;;5135253;27;20201;-59
2022/05/05 01:29:54;;;;;;;9.00;3.93;;;10.60;99.90;;;;;;5134403;27;20223;-59
2022/05/05 01:32:21;;;;;;;8.37;3.67;;;10.60;99.90;;;;;;5134953;27;20206;-59
2022/05/05 01:34:48;;;;;;;7.20;4.17;;;10.60;99.90;;;;;;5134917;27;20207;-59
2022/05/05 01:37:16;;;;;;;5.90;3.43;;;10.60;99.90;;;;;;5134695;27;20206;-59
2022/05/05 01:39:42;;;;;;;8.40;3.80;;;10.60;99.90;;;;;;5134598;27;20283;-57
2022/05/05 01:42:09;;;;;;;11.83;4.03;;;10.70;99.90;;;;;;5134418;27;20225;-58
2022/05/05 01:44:36;;;;;;;10.13;4.43;;;10.60;99.90;;;;;;5134807;27;20206;-59
2022/05/05 01:47:03;;;;;;;5.60;3.83;;;10.60;99.90;;;;;;5134258;27;20259;-56
2022/05/05 01:49:30;;;;;;;9.23;4.03;;;10.60;99.90;;;;;;5133900;27;20262;-58
2022/05/05 01:51:56;;;;;;;9.10;4.37;;;10.60;99.90;;;;;;5134200;27;20207;-56
2022/05/05 01:54:24;;;;;;;8.23;3.67;;;10.60;99.90;;;;;;5135176;27;20206;-57
2022/05/05 01:56:51;;;;;;;10.03;4.67;;;10.50;99.90;;;;;;5134499;27;20260;-58
2022/05/05 01:59:18;;;;;;;12.03;4.47;;;10.60;99.90;;;;;;5134522;27;20207;-55
2022/05/05 02:01:45;;;;;;;10.60;4.30;;;10.60;99.90;;;;;;5134733;27;20262;-59
2022/05/05 02:04:12;;;;;;;14.57;4.50;;;10.60;99.90;;;;;;5134144;27;20578;-58
2022/05/05 02:06:38;;;;;;;8.60;4.53;;;10.60;99.90;;;;;;5133939;27;20207;-58
2022/05/05 02:09:05;;;;;;;7.77;4.60;;;10.60;99.90;;;;;;5134204;27;20206;-59
2022/05/05 02:11:33;;;;;;;11.60;5.07;;;10.70;99.90;;;;;;5134417;27;20237;-57
2022/05/05 02:13:59;;;;;;;8.27;4.33;;;10.70;99.90;;;;;;5133464;27;20260;-59
2022/05/05 02:16:26;;;;;;;8.50;4.13;;;10.70;99.90;;;;;;5133947;27;20203;-59
2022/05/05 02:18:53;;;;;;;13.07;4.57;;;10.70;99.90;;;;;;5134590;27;20261;-59
2022/05/05 02:21:20;;;;;;;11.03;4.67;;;10.70;99.90;;;;;;5134696;27;20422;-59
2022/05/05 02:23:46;;;;;;;9.00;4.17;;;10.70;99.90;;;;;;5134251;27;20237;-57
2022/05/05 02:26:13;;;;;;;10.07;4.23;;;10.70;99.90;;;;;;5134365;27;20213;-58
2022/05/05 02:28:41;;;;;;;12.43;4.60;;;10.70;99.90;;;;;;5133873;27;20210;-57
2022/05/05 02:31:08;;;;;;;7.47;4.17;;;10.80;99.90;;;;;;5133601;27;20222;-59
2022/05/05 02:33:34;;;;;;;10.93;4.53;;;10.80;99.90;;;;;;5134900;27;20207;-59
2022/05/05 02:38:47;;;;;;;9.17;4.23;;;10.70;99.90;;;;;;5134542;27;20195;-59
2022/05/05 02:41:14;;;;;;;9.37;4.30;;;10.70;99.90;;;;;;5134805;27;20222;-59
2022/05/05 02:43:42;;;;;;;11.73;4.70;;;10.70;99.90;;;;;;5134526;27;20629;-59
2022/05/05 02:46:09;;;;;;;13.20;4.77;;;10.70;99.90;;;;;;5134146;27;20255;-58
2022/05/05 02:48:37;;;;;;;7.93;4.20;;;10.70;99.90;;;;;;5134097;27;20231;-59
2022/05/05 02:51:03;;;;;;;9.10;4.20;;;10.70;99.90;;;;;;5134426;27;20275;-59
2022/05/05 02:56:16;;;;;;;10.10;4.00;;;10.60;99.90;;;;;;5134069;27;20208;-58
2022/05/05 02:58:44;;;;;;;12.23;5.00;;;10.60;99.90;;;;;;5134040;27;20297;-59
2022/05/05 03:01:11;;;;;;;10.13;4.47;;;10.60;99.90;;;;;;5133899;27;20783;-59
2022/05/05 03:03:37;;;;;;;11.37;5.13;;;10.60;99.90;;;;;;5133629;27;20767;-57
2022/05/05 03:06:04;;;;;;;9.17;5.00;;;10.60;99.90;;;;;;5134197;27;20247;-57
2022/05/05 03:08:31;;;;;;;8.30;4.10;;;10.60;99.90;;;;;;5133987;27;20210;-59
2022/05/05 03:10:57;;;;;;;8.57;4.30;;;10.50;99.90;;;;;;5133914;27;20228;-56
2022/05/05 03:13:24;;;;;;;8.77;4.83;;;10.60;99.90;;;;;;5133966;27;20330;-59
2022/05/05 03:15:52;;;;;;;7.57;4.90;;;10.50;99.90;;;;;;5133867;27;20205;-59
2022/05/05 03:18:19;;;;;;;13.93;4.80;;;10.50;99.90;;;;;;5134172;27;20253;-57
2022/05/05 03:20:47;;;;;;;9.07;5.03;;;10.40;99.90;;;;;;5133837;27;20229;-59
2022/05/05 03:23:13;;;;;;;11.87;4.57;;;10.40;99.90;;;;;;5133895;27;20225;-59
2022/05/05 03:25:40;;;;;;;9.03;4.80;;;10.40;99.90;;;;;;5132727;27;20201;-59
2022/05/05 03:28:07;;;;;;;9.20;4.60;;;10.30;99.90;;;;;;5133522;27;20674;-59
2022/05/05 03:30:33;;;;;;;9.57;4.70;;;10.20;99.90;;;;;;5133644;27;20236;-59
2022/05/05 03:33:01;;;;;;;8.67;4.97;;;10.20;99.90;;;;;;5133903;27;20202;-58
2022/05/05 03:35:28;;;;;;;11.40;4.40;;;10.10;99.90;;;;;;5133339;27;20742;-57
2022/05/05 03:37:55;;;;;;;9.83;4.70;;;10.10;99.90;;;;;;5133296;27;20607;-59
2022/05/05 03:40:22;;;;;;;7.63;5.00;;;10.10;99.90;;;;;;5133426;27;20231;-59
2022/05/05 03:42:49;;;;;;;13.57;4.70;;;10.10;99.90;;;;;;5133085;27;20640;-59
2022/05/05 03:45:15;;;;;;;14.70;4.93;;;10.00;99.90;;;;;;5133549;27;20252;-59
2022/05/05 03:47:42;;;;;;;7.73;4.93;;;10.00;99.90;;;;;;5133485;27;20622;-58
2022/05/05 03:50:10;;;;;;;14.13;4.27;;;10.00;99.90;;;;;;5133577;27;20599;-57
2022/05/05 03:52:37;;;;;;;7.90;4.53;;;10.00;99.90;;;;;;5133074;27;20230;-57
2022/05/05 03:55:04;;;;;;;11.37;5.10;;;10.00;99.90;;;;;;5133564;27;20217;-59
2022/05/05 03:57:33;;;;;;;7.87;4.37;;;10.00;99.90;;;;;;5132925;27;20193;-57
2022/05/05 04:00:00;;;;;;;10.03;5.10;;;9.90;99.90;;;;;;5133153;27;20227;-58
2022/05/05 04:02:27;;;;;;;7.40;4.50;;;9.80;99.90;;;;;;5133116;27;20249;-57
2022/05/05 04:04:53;;;;;;;8.53;5.03;;;9.80;99.90;;;;;;5132775;27;20666;-58
2022/05/05 04:07:21;;;;;;;9.40;5.37;;;9.80;99.90;;;;;;5132602;27;20236;-59
2022/05/05 04:09:48;;;;;;;9.63;5.03;;;9.80;99.90;;;;;;5132712;27;20223;-59
2022/05/05 04:12:15;;;;;;;10.20;4.83;;;9.80;99.90;;;;;;5132839;27;20227;-55
2022/05/05 04:14:41;;;;;;;9.70;5.03;;;9.80;99.90;;;;;;5133154;27;20578;-59
2022/05/05 04:17:08;;;;;;;8.50;4.87;;;9.80;99.90;;;;;;5132678;27;20207;-59
2022/05/05 04:19:36;;;;;;;8.37;4.90;;;9.80;99.90;;;;;;5132523;27;20277;-59
2022/05/05 04:22:03;;;;;;;12.77;4.53;;;9.80;99.90;;;;;;5132723;27;20201;-59
2022/05/05 04:24:31;;;;;;;10.00;4.77;;;9.80;99.90;;;;;;5132611;27;20290;-57
2022/05/05 04:26:58;;;;;;;10.33;4.80;;;9.80;99.90;;;;;;5132475;27;20205;-59
2022/05/05 04:29:25;;;;;;;11.57;5.50;;;9.80;99.90;;;;;;5132982;27;20206;-59
2022/05/05 04:31:53;;;;;;;10.33;5.13;;;9.80;99.90;;;;;;5132460;27;20733;-58
2022/05/05 04:34:20;;;;;;;9.77;5.20;;;9.80;99.90;;;;;;5132816;27;20204;-54
2022/05/05 04:36:47;;;;;;;13.00;5.27;;;9.80;99.90;;;;;;5134320;27;20291;-58
2022/05/05 04:39:14;;;;;;;13.33;4.87;;;9.90;99.90;;;;;;5136995;27;20210;-58
2022/05/05 04:41:42;;;;;;;11.97;5.20;;;10.00;99.90;;;;;;5136760;27;20275;-58
2022/05/05 04:44:08;;;;;;;9.80;4.97;;;10.00;99.90;;;;;;5137048;27;20229;-57
2022/05/05 04:46:35;;;;;;;12.67;5.30;;;10.10;99.90;;;;;;5136535;27;20336;-58
2022/05/05 04:49:01;;;;;;;14.40;5.50;;;10.20;99.90;;;;;;5136726;27;20210;-59
2022/05/05 04:51:28;;;;;;;11.73;5.73;;;10.20;99.90;;;;;;5136381;27;20258;-59
2022/05/05 04:53:55;;;;;;;11.13;5.00;;;10.30;99.90;;;;;;5135797;27;20730;-60
2022/05/05 04:56:21;;;;;;;12.07;5.37;;;10.30;99.90;;;;;;5134937;27;20211;-60
2022/05/05 04:58:49;;;;;;;8.50;5.10;;;10.40;99.90;;;;;;5136307;27;20209;-59
2022/05/05 05:01:16;;;;;;;8.27;5.17;;;10.50;99.90;;;;;;5136499;27;20286;-60
2022/05/05 05:03:42;;;;;;;14.50;5.13;;;10.60;99.90;;;;;;5136080;27;20220;-59
2022/05/05 05:06:10;;;;;;;8.43;5.40;;;10.70;99.90;;;;;;5135804;27;20238;-60
2022/05/05 05:08:37;;;;;;;10.13;4.93;;;10.70;99.90;;;;;;5136265;27;20668;-60
2022/05/05 05:11:05;;;;;;;10.87;5.20;;;10.80;99.90;;;;;;5135782;27;20656;-60
2022/05/05 05:13:31;;;;;;;11.53;4.93;;;10.80;99.90;;;;;;5136563;27;20247;-60
2022/05/05 05:15:59;;;;;;;9.97;5.23;;;10.90;99.90;;;;;;5135848;27;20211;-60
2022/05/05 05:18:26;;;;;;;9.77;4.67;;;11.00;99.90;;;;;;5136209;27;20235;-60
2022/05/05 05:20:53;;;;;;;9.77;5.00;;;11.00;99.90;;;;;;5135716;27;20373;-59
2022/05/05 05:23:20;;;;;;;10.40;4.70;;;11.10;99.90;;;;;;5136016;27;20261;-60
2022/05/05 05:25:46;;;;;;;9.47;5.37;;;11.10;99.90;;;;;;5136145;27;20203;-60
2022/05/05 05:28:13;;;;;;;9.83;5.33;;;11.10;99.90;;;;;;5135278;27;20206;-60
2022/05/05 05:30:41;;;;;;;10.17;5.00;;;11.30;99.90;;;;;;5135848;27;20227;-60
2022/05/05 05:33:09;;;;;;;10.33;5.27;;;11.30;99.90;;;;;;5135126;27;20811;-60
2022/05/05 05:35:36;;;;;;;13.57;5.10;;;11.40;99.90;;;;;;5135517;27;20209;-60
2022/05/05 05:38:02;;;;;;;10.17;5.40;;;11.40;99.90;;;;;;5129277;27;20204;-62
2022/05/05 05:40:29;;;;;;;10.97;5.50;;;11.40;99.90;;;;;;5134619;27;20271;-59
2022/05/05 05:42:56;;;;;;;14.53;5.10;;;11.50;99.90;;;;;;5135325;27;20210;-60
2022/05/05 05:45:23;;;;;;;9.73;5.57;;;11.60;99.90;;;;;;5134712;27;20255;-60
2022/05/05 05:47:50;;;;;;;15.50;5.50;;;11.60;99.90;;;;;;5134003;27;20191;-60
2022/05/05 05:50:18;;;;;;;9.33;5.43;;;11.70;99.90;;;;;;5134617;27;20222;-59
2022/05/05 05:52:45;;;;;;;9.37;5.30;;;11.70;99.90;;;;;;5135205;27;20252;-64
2022/05/05 05:55:12;;;;;;;13.43;5.53;;;11.80;99.90;;;;;;5135126;27;20247;-64
2022/05/05 05:57:38;;;;;;;10.23;5.33;;;11.90;99.90;;;;;;5134511;27;20210;-65
2022/05/05 06:00:07;;;;;;;9.50;5.27;;;12.10;99.90;;;;;;5134681;27;20750;-62
2022/05/05 06:05:19;;;;;;;12.50;5.13;;;12.50;99.90;;;;;;5134890;27;20329;-62
2022/05/05 06:07:46;;;;;;;13.37;5.23;;;12.70;99.90;;;;;;5134097;27;20203;-62
2022/05/05 06:10:12;;;;;;;9.53;5.00;;;12.80;99.90;;;;;;5134334;27;20773;-63
2022/05/05 06:12:39;;;;;;;10.00;6.00;;;13.00;99.90;;;;;;5134403;27;20738;-63
2022/05/05 06:15:07;;;;;;;11.93;6.10;;;13.20;99.90;;;;;;5134427;27;20238;-63
2022/05/05 06:17:34;;;;;;;8.90;5.50;;;13.40;99.90;;;;;;5134009;27;20211;-62
2022/05/05 06:20:01;;;;;;;13.57;5.60;;;13.50;99.90;;;;;;5133862;27;20782;-62
2022/05/05 06:22:29;;;;;;;12.97;5.90;;;13.60;99.90;;;;;;5134309;27;20749;-61
2022/05/05 06:24:56;;;;;;;15.93;6.40;;;13.70;99.90;;;;;;5134293;27;20231;-61
2022/05/05 06:27:23;;;;;;;15.67;6.73;;;13.40;97.00;;;;;;5133389;27;20202;-59
2022/05/05 06:29:50;;;;;;;10.57;6.00;;;13.40;95.30;;;;;;5134078;27;20228;-61
2022/05/05 06:32:17;;;;;;;12.90;6.67;;;13.40;97.10;;;;;;5133417;27;20207;-64
2022/05/05 06:34:44;;;;;;;15.20;6.67;;;13.60;94.60;;;;;;5133596;27;20208;-64
2022/05/05 06:37:13;;;;;;;10.80;5.93;;;13.80;93.60;;;;;;5132483;27;20209;-65
2022/05/05 06:39:41;;;;;;;13.40;6.17;;;13.90;92.30;;;;;;5136347;27;20923;-64
2022/05/05 06:42:09;;;;;;;10.27;5.93;;;13.80;92.60;;;;;;5137614;27;20207;-65
2022/05/05 06:44:36;;;;;;;14.63;6.67;;;13.60;92.80;;;;;;5133588;27;20233;-67
2022/05/05 06:47:03;;;;;;;13.23;6.87;;;13.70;96.40;;;;;;5134104;27;20847;-66
2022/05/05 06:49:30;;;;;;;14.67;6.30;;;13.80;99.90;;;;;;5132862;27;20209;-64
2022/05/05 06:51:57;;;;;;;12.47;6.80;;;14.00;99.90;;;;;;5133378;27;20296;-62
2022/05/05 06:54:24;;;;;;;16.03;7.37;;;14.10;99.90;;;;;;5132516;27;20205;-64
2022/05/05 06:56:53;;;;;;;13.33;6.70;;;14.20;99.90;;;;;;5133143;27;20206;-60
2022/05/05 06:59:19;;;;;;;14.07;7.20;;;14.10;99.90;;;;;;5133068;27;20209;-62
2022/05/05 07:01:57;;;;;;;13.70;6.30;;;14.20;99.90;;;;;;5132497;27;20215;-61
2022/05/05 07:07:11;;;;;;;15.67;6.40;;;14.70;99.90;;;;;;5132476;27;20726;-62
2022/05/05 07:12:24;;;;;;;13.53;6.50;;;14.80;99.90;;;;;;5132463;27;20329;-62
2022/05/05 07:14:51;;;;;;;10.33;6.80;;;14.90;97.50;;;;;;5132855;27;20330;-62
2022/05/05 07:17:18;;;;;;;18.53;7.03;;;15.00;97.10;;;;;;5131303;27;20203;-62
2022/05/05 07:19:45;;;;;;;14.40;6.27;;;14.80;97.10;;;;;;5132166;27;21031;-62
2022/05/05 07:22:11;;;;;;;16.43;6.50;;;14.70;94.20;;;;;;5132399;27;20908;-62
2022/05/05 07:24:38;;;;;;;12.97;6.10;;;14.80;91.30;;;;;;5132543;27;20226;-62
2022/05/05 07:27:06;;;;;;;17.93;5.83;;;14.90;90.60;;;;;;5132907;27;20211;-60
2022/05/05 07:29:35;;;;;;;14.80;6.00;;;15.10;92.40;;;;;;5132379;27;20236;-62
2022/05/05 07:32:01;;;;;;;13.37;6.03;;;15.10;92.40;;;;;;5132367;27;20202;-63
2022/05/05 07:34:28;;;;;;;15.33;6.63;;;15.10;89.80;;;;;;5132606;27;20195;-61
2022/05/05 07:36:55;;;;;;;10.53;5.60;;;15.10;91.10;;;;;;5132620;27;20205;-63
2022/05/05 07:39:22;;;;;;;10.67;5.37;;;15.40;96.90;;;;;;5132706;27;20206;-63
2022/05/05 07:41:49;;;;;;;17.20;6.10;;;15.50;94.40;;;;;;5132096;27;20207;-62
2022/05/05 07:44:16;;;;;;;12.20;5.73;;;15.60;91.10;;;;;;5132697;27;20628;-62
2022/05/05 07:46:44;;;;;;;15.40;5.47;;;15.70;86.90;;;;;;5131830;27;20293;-61
2022/05/05 07:49:11;;;;;;;14.20;5.30;;;15.60;81.10;;;;;;5132971;27;20231;-61
2022/05/05 07:51:38;;;;;;;7.20;5.33;;;15.50;83.80;;;;;;5131585;27;20219;-62
2022/05/05 07:56:51;;;;;;;10.80;6.20;;;15.90;81.60;;;;;;5132409;27;20249;-61
2022/05/05 07:59:18;;;;;;;13.13;5.97;;;16.00;75.50;;;;;;5132503;27;20258;-61
2022/05/05 08:01:46;;;;;;;14.37;6.23;;;16.10;77.50;;;;;;5132275;27;20214;-60
2022/05/05 08:04:12;;;;;;;9.97;5.93;;;15.80;71.90;;;;;;5132461;27;20223;-60
2022/05/05 08:06:39;;;;;;;12.47;6.80;;;15.80;75.10;;;;;;5131921;27;20244;-60
2022/05/05 08:09:06;;;;;;;15.27;8.20;;;15.90;77.80;;;;;;5132567;27;20206;-63
2022/05/05 08:11:34;;;;;;;15.03;8.47;;;16.00;80.40;;;;;;5130179;27;20235;-60
2022/05/05 08:14:01;;;;;;;16.90;8.00;;;16.10;81.30;;;;;;5132722;27;20203;-60
2022/05/05 08:16:28;;;;;;;17.40;7.57;;;15.90;77.90;;;;;;5131824;27;20252;-63
2022/05/05 08:18:56;;;;;;;19.97;8.80;;;16.00;77.10;;;;;;5132536;27;20213;-62
2022/05/05 08:21:22;;;;;;;18.50;8.23;;;16.10;79.00;;;;;;5131044;27;20226;-63
2022/05/05 08:28:27;;;;;;;16.97;9.37;;;16.20;85.60;;;;;;5132110;27;20279;-64
2022/05/05 08:29:20;;;;;;;15.90;8.00;;;15.90;73.70;;;;;;5131332;28;20286;-60
2022/05/05 08:31:46;;;;;;;17.77;6.97;;;16.00;81.30;;;;;;5131367;27;20260;-63
2022/05/05 08:34:14;;;;;;;20.13;8.40;;;16.10;76.50;;;;;;5131915;27;20230;-61
2022/05/05 08:36:41;;;;;;;13.87;8.07;;;15.90;72.10;;;;;;5131588;27;20283;-64
2022/05/05 08:39:08;;;;;;;20.63;9.43;;;15.90;77.60;;;;;;5132179;27;20210;-65
2022/05/05 08:41:36;;;;;;;16.03;9.17;;;15.90;80.80;;;;;;5131326;27;20582;-64
2022/05/05 08:44:03;;;;;;;14.87;9.13;;;16.00;76.20;;;;;;5131809;27;20223;-63
2022/05/05 08:46:34;;;;;;;19.50;10.10;;;16.10;79.80;;;;;;5131591;27;20202;-63
2022/05/05 08:49:04;;;;;;;18.07;9.70;;;16.10;76.40;;;;;;5131987;27;20199;-62
2022/05/05 08:51:39;;;;;;;17.77;10.73;;;15.90;72.10;;;;;;5131234;27;20310;-61
2022/05/05 08:54:07;;;;;;;21.50;10.13;;;16.00;73.40;;;;;;5132381;27;20289;-62
2022/05/05 08:56:34;;;;;;;19.57;10.43;;;16.10;74.30;;;;;;5131441;27;20203;-61
2022/05/05 08:59:02;;;;;;;22.93;11.07;;;16.10;75.30;;;;;;5131850;27;20199;-61
2022/05/05 09:01:36;;;;;;;19.93;10.60;;;16.20;82.20;;;;;;5130885;27;20227;-62
2022/05/05 09:04:04;;;;;;;19.77;10.80;;;16.20;75.50;;;;;;5131850;27;20624;-62
2022/05/05 09:06:51;;;;;;;22.00;12.60;;;16.40;76.40;;;;;;5131583;27;20203;-59
2022/05/05 09:09:24;;;;;;;25.00;11.47;;;16.40;79.70;;;;;;5130752;27;20691;-64
2022/05/05 09:12:09;;;;;;;19.73;10.03;;;16.50;80.80;;;;;;5131036;27;20753;-63
2022/05/05 09:14:37;;;;;;;18.77;10.60;;;16.30;73.00;;;;;;5131454;27;20234;-63
2022/05/05 09:17:05;;;;;;;19.40;9.37;;;16.10;72.10;;;;;;5131403;27;20207;-64
2022/05/05 09:19:36;;;;;;;21.70;10.70;;;16.30;82.20;;;;;;5131497;27;20214;-65
2022/05/05 09:22:05;;;;;;;20.20;10.30;;;16.50;86.40;;;;;;5131078;27;20191;-63
2022/05/05 09:24:45;;;;;;;20.67;10.10;;;16.50;81.10;;;;;;5134512;27;20219;-63
2022/05/05 09:27:19;;;;;;;21.70;9.97;;;16.20;72.60;;;;;;5134985;27;20206;-63
2022/05/05 09:30:00;;;;;;;16.40;9.53;;;16.00;78.90;;;;;;5135082;27;20314;-63
2022/05/05 09:32:29;;;;;;;20.37;10.40;;;16.40;85.10;;;;;;5134767;27;20265;-63
2022/05/05 09:34:59;;;;;;;21.90;10.80;;;16.70;86.20;;;;;;5135048;27;20757;-63
2022/05/05 09:37:27;;;;;;;18.43;9.97;;;16.40;76.80;;;;;;5134333;27;20708;-63
2022/05/05 09:39:56;;;;;;;20.37;10.03;;;16.30;76.20;;;;;;5134888;27;20234;-62
2022/05/05 09:42:36;;;;;;;19.13;10.33;;;16.30;76.90;;;;;;5135071;27;20203;-65
2022/05/05 09:45:16;;;;;;;21.97;10.83;;;16.40;80.40;;;;;;5135028;27;20223;-63
2022/05/05 09:47:43;;;;;;;23.60;11.77;;;16.10;70.00;;;;;;5134754;27;20213;-63
2022/05/05 09:50:10;;;;;;;22.87;10.77;;;16.10;72.50;;;;;;5134490;27;20223;-66
2022/05/05 09:58:10;;;;;;;20.83;11.47;;;17.00;81.70;;;;;;5135009;27;20198;-65
2022/05/05 10:06:22;;;;;;;19.97;11.73;;;17.20;90.60;;;;;;5134192;27;20621;-62
2022/05/05 10:08:53;;;;;;;19.73;10.57;;;17.30;87.10;;;;;;5134732;27;20553;-66
2022/05/05 10:11:22;;;;;;;24.63;11.83;;;17.10;86.60;;;;;;5134433;27;20242;-68
2022/05/05 10:13:50;;;;;;;21.03;10.77;;;17.30;88.30;;;;;;5134892;27;20252;-64
2022/05/05 10:16:19;;;;;;;20.57;11.30;;;17.80;94.40;;;;;;5134362;27;20207;-62
2022/05/05 10:18:46;;;;;;;19.67;10.57;;;18.10;95.90;;;;;;5133934;27;20628;-62
2022/05/05 10:21:23;;;;;;;16.33;10.00;;;18.30;95.20;;;;;;5133916;27;20222;-62
2022/05/05 10:23:59;;;;;;;22.57;11.00;;;18.50;95.90;;;;;;5134571;27;20211;-63
2022/05/05 10:26:26;;;;;;;19.23;10.57;;;18.80;94.30;;;;;;5134121;27;20230;-63
2022/05/05 10:28:53;;;;;;;21.33;11.40;;;18.20;90.20;;;;;;5133959;27;20214;-63
2022/05/05 10:31:42;;;;;;;18.23;11.87;;;17.80;84.10;;;;;;5133329;27;20724;-62
2022/05/05 10:34:15;;;;;;;19.17;10.60;;;17.80;83.90;;;;;;5133874;27;20207;-64
2022/05/05 10:36:58;;;;;;;18.00;10.33;;;17.60;77.80;;;;;;5133572;27;20876;-64
2022/05/05 10:39:39;;;;;;;21.50;10.80;;;17.40;76.60;;;;;;5133358;27;20228;-61
2022/05/05 10:42:14;;;;;;;17.13;9.70;;;17.40;76.90;;;;;;5133479;27;20244;-64
2022/05/05 10:45:10;;;;;;;17.17;10.27;;;17.50;80.10;;;;;;5133884;27;20579;-64
2022/05/05 10:48:18;;;;;;;19.53;9.90;;;17.50;79.80;;;;;;5133349;27;20206;-61
2022/05/05 10:50:56;;;;;;;19.77;11.23;;;17.40;77.20;;;;;;5133659;27;20231;-62
2022/05/05 10:53:31;;;;;;;18.73;10.53;;;17.40;74.90;;;;;;5133721;27;20210;-66
2022/05/05 10:56:02;;;;;;;17.50;10.73;;;17.40;75.80;;;;;;5133958;27;20252;-64
2022/05/05 10:58:57;;;;;;;15.30;9.17;;;17.40;83.50;;;;;;5132981;27;20199;-63
2022/05/05 11:01:24;;;;;;;22.70;11.17;;;18.00;89.50;;;;;;5133288;27;20272;-63
2022/05/05 11:04:08;;;;;;;18.13;9.70;;;18.40;91.90;;;;;;5133797;27;20214;-63
2022/05/05 11:06:36;;;;;;;24.27;10.30;;;18.70;92.50;;;;;;5132875;27;20252;-63
2022/05/05 11:09:03;;;;;;;17.13;10.20;;;18.70;92.40;;;;;;5133796;27;20203;-63
2022/05/05 11:11:41;;;;;;;19.53;10.23;;;18.60;90.00;;;;;;5132415;27;20259;-65
2022/05/05 11:22:46;;;;;;;18.10;9.60;;;18.10;85.50;;;;;;5132400;27;20583;-64
2022/05/05 11:25:12;;;;;;;12.33;8.83;;;18.10;81.90;;;;;;5132652;27;20302;-64
2022/05/05 11:27:41;;;;;;;16.40;8.53;;;18.00;80.10;;;;;;5132507;27;20210;-65
2022/05/05 11:30:13;;;;;;;14.80;7.43;;;18.00;83.40;;;;;;5132663;27;20301;-62
2022/05/05 11:32:43;;;;;;;14.50;8.33;;;18.20;89.10;;;;;;5132732;27;20203;-64
2022/05/05 11:35:11;;;;;;;11.67;7.60;;;18.60;84.90;;;;;;5132968;27;20284;-64
2022/05/05 11:37:43;;;;;;;15.20;7.97;;;18.70;91.00;;;;;;5132792;27;20691;-64
2022/05/05 11:40:12;;;;;;;13.57;7.47;;;19.00;91.00;;;;;;5132005;27;20746;-63
2022/05/05 11:45:27;;;;;;;11.73;7.70;;;19.00;92.90;;;;;;5131468;27;20254;-64
2022/05/05 11:47:54;;;;;;;14.00;7.73;;;18.80;87.10;;;;;;5132621;27;20210;-64
2022/05/05 11:50:21;;;;;;;17.17;8.40;;;18.70;86.80;;;;;;5132017;27;20713;-63
2022/05/05 11:52:48;;;;;;;18.97;9.00;;;18.50;83.70;;;;;;5132079;27;20202;-63
2022/05/05 11:55:19;;;;;;;14.23;7.80;;;18.30;78.10;;;;;;5132704;27;20195;-64
2022/05/05 11:57:49;;;;;;;13.30;7.70;;;18.20;81.20;;;;;;5132199;27;20248;-65
2022/05/05 12:03:02;;;;;;;14.30;7.53;;;17.70;73.70;;;;;;5131877;27;20264;-64
2022/05/05 12:05:29;;;;;;;20.27;8.10;;;18.10;93.80;;;;;;5132565;27;20225;-63
2022/05/05 12:07:56;;;;;;;14.27;7.97;;;18.10;79.50;;;;;;5132369;27;20260;-64
2022/05/05 12:10:33;;;;;;;14.30;7.80;;;18.40;84.40;;;;;;5131578;27;21030;-63
2022/05/05 12:13:02;;;;;;;14.60;8.03;;;18.60;89.20;;;;;;5131875;27;20214;-61
2022/05/05 12:15:29;;;;;;;14.70;7.33;;;18.90;87.20;;;;;;5131988;27;20293;-63
2022/05/05 12:17:58;;;;;;;12.27;7.67;;;19.00;91.50;;;;;;5132107;27;20215;-63
2022/05/05 12:20:26;;;;;;;16.20;7.20;;;18.90;91.90;;;;;;5131457;27;20325;-63
2022/05/05 12:22:57;;;;;;;12.13;7.13;;;18.80;84.60;;;;;;5131786;27;20214;-65
2022/05/05 12:25:25;;;;;;;12.23;7.37;;;19.20;90.00;;;;;;5132261;27;20223;-62
2022/05/05 12:28:08;;;;;;;15.33;7.13;;;19.40;91.80;;;;;;5131246;27;20206;-63
2022/05/05 12:30:36;;;;;;;10.20;6.47;;;19.50;90.80;;;;;;5131969;27;20225;-63
2022/05/05 12:33:04;;;;;;;13.40;7.23;;;19.60;92.30;;;;;;5131951;27;20599;-65
2022/05/05 12:35:32;;;;;;;13.27;7.23;;;19.60;92.40;;;;;;5132924;27;20243;-66
2022/05/05 12:37:59;;;;;;;15.17;7.60;;;19.50;90.90;;;;;;5132178;27;20672;-65
2022/05/05 12:40:27;;;;;;;11.07;7.17;;;19.40;90.00;;;;;;5132395;27;21082;-67
2022/05/05 12:43:02;;;;;;;12.87;7.90;;;19.30;90.30;;;;;;5133291;27;20294;-65
2022/05/05 12:45:43;;;;;;;11.83;7.13;;;19.30;90.70;;;;;;5133204;27;20309;-65
2022/05/05 12:48:11;;;;;;;12.10;6.30;;;19.20;89.20;;;;;;5133294;27;20210;-64
2022/05/05 12:50:43;;;;;;;11.63;6.63;;;19.00;86.40;;;;;;5132979;27;20230;-64
2022/05/05 13:01:33;;;;;;;11.27;5.90;;;19.10;93.20;;;;;;5134919;27;20298;-64
2022/05/05 13:04:05;;;;;;;9.57;5.63;;;19.10;84.90;;;;;;5136415;27;20206;-64
2022/05/05 13:06:32;;;;;;;8.70;5.67;;;19.20;86.10;;;;;;5135844;27;20572;-65
2022/05/05 13:08:59;;;;;;;10.90;5.40;;;19.40;92.20;;;;;;5136309;27;20662;-65
2022/05/05 13:11:26;;;;;;;11.43;5.50;;;19.60;94.90;;;;;;5134889;27;20659;-64
2022/05/05 13:13:53;;;;;;;7.97;5.00;;;19.70;93.10;;;;;;5135330;27;20259;-66
2022/05/05 13:16:21;;;;;;;6.97;5.27;;;19.80;92.00;;;;;;5135684;27;20203;-63
2022/05/05 13:18:49;;;;;;;5.97;4.10;;;20.00;93.30;;;;;;5135554;27;20206;-64
2022/05/05 13:21:15;;;;;;;7.80;4.70;;;20.00;92.60;;;;;;5135048;27;20573;-64
2022/05/05 13:23:42;;;;;;;7.17;4.17;;;19.90;92.10;;;;;;5135440;27;20692;-65
2022/05/05 13:26:10;;;;;;;13.23;5.27;;;19.90;91.10;;;;;;5134783;27;20219;-64
2022/05/05 13:28:37;;;;;;;8.53;5.30;;;19.70;90.20;;;;;;5135606;27;20206;-62
2022/05/05 13:31:04;;;;;;;10.00;5.40;;;19.50;89.20;;;;;;5134881;27;20226;-63
2022/05/05 13:33:31;;;;;;;7.10;5.40;;;19.20;90.60;;;;;;5135132;27;20672;-64
2022/05/05 13:36:00;;;;;;;11.43;5.33;;;19.00;84.70;;;;;;5134881;27;20206;-64
2022/05/05 13:38:27;;;;;;;7.57;5.00;;;19.00;85.60;;;;;;5135162;27;20264;-63
2022/05/05 13:40:55;;;;;;;7.70;5.30;;;19.10;86.00;;;;;;5134565;27;20227;-64
2022/05/05 13:43:22;;;;;;;9.03;5.03;;;18.90;85.60;;;;;;5134627;27;20226;-64